CheckWX is a tool to help pilots better visualize weather data.  It is not intended as a substitute for an official pre-flight weather briefing.

20:30:30 UTC

KPSC TAF
Tri-Cities Airport
Pasco, Washington, USA
KPSC 251722Z 2518/2618 VRB06KT P6SM SCT100 BKN150 FM260200 VRB05KT P6SM SCT090 BKN120 FM261600 VRB05KT P6SM VCSH SCT080 BKN100 FM261730 VRB06KT P6SM VCTS SCT070CB BKN090

Jun-25@
18:00 UTC

Jun-25 @ 18:00 UTC

Jun-26@
02:00 UTC

Jun-26 @ 02:00 UTC

KPSC 251722Z 2518/2618 VRB06KT P6SM SCT100 BKN150
Wind
  • Variable at 6 KTS
Cloud Levels
  • Scattered at 10,000' AGL
  • Broken at 15,000' AGL

Jun-26@
02:00 UTC

Jun-26 @ 02:00 UTC

Jun-26@
16:00 UTC

Jun-26 @ 16:00 UTC

FM260200 VRB05KT P6SM SCT090 BKN120

From

From Standard forecast or significant change

Wind
  • Variable at 5 KTS
Cloud Levels
  • Scattered at 9,000' AGL
  • Broken at 12,000' AGL

Jun-26@
16:00 UTC

Jun-26 @ 16:00 UTC

Jun-26@
17:30 UTC

Jun-26 @ 17:30 UTC

FM261600 VRB05KT P6SM VCSH SCT080 BKN100

From

From Standard forecast or significant change

Wind
  • Variable at 5 KTS
Cloud Levels
  • Scattered at 8,000' AGL
  • Broken at 10,000' AGL

Jun-26@
17:30 UTC

Jun-26 @ 17:30 UTC

Jun-26@
18:00 UTC

Jun-26 @ 18:00 UTC

FM261730 VRB06KT P6SM VCTS SCT070CB BKN090

From

From Standard forecast or significant change

Wind
  • Variable at 6 KTS
Conditions
Area Thunderstorm
Cloud Levels
  • Scattered at 7,000' AGL
  • Broken at 9,000' AGL